SBCY/CGB METAR and TAF weather

Enter ICAO airport designator
Station Type Date Time Source
SBCY METAR 2022/05/24 11:00 UTC NOAA

SBCY 241100Z 32005KT CAVOK 19/15 Q1016


Station Type Date Time Source
SBCY Decoded METAR 2022/05/24 11:00 UTC NOAA

Cuiaba Aeroporto , Brazil (SBCY) 15-39S 056-06W 182M
May 24, 2022 - 07:00 AM EDT / 2022.05.24 1100 UTC
Wind: from the NW (320 degrees) at 6 MPH (5 KT):0
Visibility: greater than 7 mile(s):0
Temperature: 66 F (19 C)
Dew Point: 59 F (15 C)
Relative Humidity: 77%
Pressure (altimeter): 30.00 in. Hg (1016 hPa)
ob: SBCY 241100Z 32005KT CAVOK 19/15 Q1016
cycle: 11

Station Type Date Time Source
SBCY TAF 2022/05/24 12:03 UTC NOAA

TAF SBCY 240900Z 2412/2512 30003KT CAVOK TX33/2418Z TN18/2509Z
BECMG 2416/2418 03005KT
BECMG 2420/2422 10005KT
BECMG 2504/2506 31004KT
RMK PGU

Example: see airport list